createdAt,value
2022-09-21T00:01:31.002Z,2.08
2022-09-21T00:04:01.532Z,1.88
2022-09-21T00:06:33.999Z,1.80
2022-09-21T00:09:04.026Z,1.80
2022-09-21T00:11:33.795Z,1.60
2022-09-21T00:14:04.715Z,1.95
2022-09-21T00:16:32.954Z,1.60
2022-09-21T00:19:00.474Z,2.00
2022-09-21T00:21:28.438Z,2.10
2022-09-21T00:23:57.608Z,1.90
2022-09-21T00:26:27.943Z,1.83
2022-09-21T00:28:58.099Z,1.83
2022-09-21T00:31:27.537Z,1.98
2022-09-21T00:33:55.284Z,1.70
2022-09-21T00:36:25.038Z,1.85
2022-09-21T00:38:54.000Z,2.00
2022-09-21T00:41:23.840Z,1.88
2022-09-21T00:44:21.042Z,1.90
2022-09-21T00:46:51.590Z,1.60
2022-09-21T00:49:20.155Z,2.60
2022-09-21T00:51:48.293Z,1.73
2022-09-21T00:54:20.194Z,1.90
2022-09-21T00:56:50.636Z,1.92
2022-09-21T00:59:21.949Z,1.90
2022-09-21T01:01:51.640Z,1.55
2022-09-21T01:04:21.739Z,1.70
2022-09-21T01:06:50.487Z,1.45
2022-09-21T01:09:18.712Z,1.48
2022-09-21T01:12:02.442Z,2.08
2022-09-21T01:14:48.613Z,1.83
2022-09-21T01:17:23.580Z,1.40
2022-09-21T01:20:27.495Z,1.88
2022-09-21T01:23:12.055Z,1.33
2022-09-21T01:25:52.343Z,1.77
2022-09-21T01:28:30.489Z,1.35
2022-09-21T01:31:06.142Z,1.42
2022-09-21T01:33:40.416Z,1.83
2022-09-21T01:36:13.117Z,1.48
2022-09-21T01:38:45.723Z,1.50
2022-09-21T01:41:16.520Z,1.23
2022-09-21T01:43:49.816Z,1.40
2022-09-21T01:46:22.826Z,1.65
2022-09-21T01:48:54.951Z,1.50
2022-09-21T01:51:26.711Z,1.60
2022-09-21T01:53:57.062Z,1.67
2022-09-21T01:56:28.187Z,1.60
2022-09-21T01:59:04.887Z,1.77
2022-09-21T02:01:39.167Z,1.60
2022-09-21T02:04:10.880Z,1.60
2022-09-21T02:06:40.030Z,1.92
2022-09-21T02:09:09.626Z,1.80
2022-09-21T02:11:39.006Z,3.55
2022-09-21T02:14:10.380Z,1.80
2022-09-21T02:16:45.042Z,1.58
2022-09-21T02:19:16.580Z,1.67
2022-09-21T02:21:57.545Z,2.17
2022-09-21T02:24:34.489Z,1.85
2022-09-21T02:27:05.879Z,1.98
2022-09-21T02:29:47.868Z,1.80
2022-09-21T02:32:25.787Z,1.90
2022-09-21T02:35:00.199Z,2.38
2022-09-21T02:37:36.914Z,1.80
2022-09-21T02:40:12.372Z,2.03
2022-09-21T02:42:43.565Z,2.05
2022-09-21T02:45:18.491Z,1.50
2022-09-21T02:47:54.333Z,1.90
2022-09-21T02:50:27.314Z,1.33
2022-09-21T02:52:56.514Z,1.40
2022-09-21T02:55:25.453Z,1.63
2022-09-21T02:57:55.265Z,1.67
2022-09-21T03:00:22.640Z,1.55
2022-09-21T03:02:51.587Z,2.65
2022-09-21T03:05:20.231Z,2.38
2022-09-21T03:07:48.975Z,3.63
2022-09-21T03:10:19.847Z,2.03
2022-09-21T03:12:47.367Z,3.08
2022-09-21T03:15:18.237Z,1.67
2022-09-21T03:17:46.185Z,1.48
2022-09-21T03:20:15.546Z,1.65
2022-09-21T03:22:43.152Z,1.60
2022-09-21T03:25:13.157Z,1.92
2022-09-21T03:27:41.447Z,1.40
2022-09-21T03:30:09.886Z,2.10
2022-09-21T03:32:37.492Z,1.83
2022-09-21T03:35:05.677Z,1.42
2022-09-21T03:37:40.567Z,2.15
2022-09-21T03:40:12.691Z,1.40
2022-09-21T03:42:41.701Z,1.75
2022-09-21T03:45:11.317Z,1.90
2022-09-21T03:50:09.958Z,1.40
2022-09-21T03:52:39.367Z,1.40
2022-09-21T03:55:08.846Z,1.27
2022-09-21T03:57:38.518Z,1.30
2022-09-21T04:00:09.085Z,1.60
2022-09-21T04:02:36.944Z,1.70
2022-09-21T04:05:05.336Z,1.90
2022-09-21T04:07:35.383Z,4.25
2022-09-21T04:10:08.906Z,3.83
2022-09-21T04:12:37.819Z,2.05
2022-09-21T04:15:07.763Z,2.42
2022-09-21T04:17:36.440Z,1.90
2022-09-21T04:20:05.401Z,1.85
2022-09-21T04:22:33.186Z,1.30
2022-09-21T04:25:01.628Z,1.98
2022-09-21T04:27:31.833Z,1.77
2022-09-21T04:29:59.417Z,1.70
2022-09-21T04:32:27.745Z,1.52
2022-09-21T04:34:55.457Z,1.70
2022-09-21T04:37:22.798Z,1.40
2022-09-21T04:39:50.366Z,2.00
2022-09-21T04:42:17.761Z,6.05
2022-09-21T04:44:46.713Z,2.63
2022-09-21T04:47:14.604Z,2.20
2022-09-21T04:49:41.901Z,2.10
2022-09-21T04:52:09.353Z,1.80
2022-09-21T04:54:36.650Z,2.00
2022-09-21T04:57:04.124Z,1.90
2022-09-21T04:59:31.312Z,2.03
2022-09-21T05:01:59.855Z,1.50
2022-09-21T05:04:27.094Z,1.60
2022-09-21T05:06:54.325Z,1.50
2022-09-21T05:09:39.828Z,1.83
2022-09-21T05:12:07.443Z,1.55
2022-09-21T05:14:34.634Z,1.80
2022-09-21T05:17:03.255Z,1.52
2022-09-21T05:19:30.580Z,2.15
2022-09-21T05:21:58.226Z,1.60
2022-09-21T05:24:25.575Z,1.70
2022-09-21T05:26:53.248Z,1.60
2022-09-21T05:29:20.984Z,2.00
2022-09-21T05:31:51.960Z,2.10
2022-09-21T05:34:37.077Z,1.50
2022-09-21T05:37:12.147Z,2.20
2022-09-21T05:39:39.939Z,2.10
2022-09-21T05:42:09.216Z,1.75
2022-09-21T05:44:38.113Z,3.97
2022-09-21T05:47:24.346Z,2.00
2022-09-21T05:50:03.664Z,1.77
2022-09-21T05:52:39.798Z,1.58
2022-09-21T05:55:21.637Z,1.77
2022-09-21T05:57:55.514Z,2.30
2022-09-21T06:00:24.366Z,1.80
2022-09-21T06:03:02.771Z,1.40
2022-09-21T06:05:31.821Z,1.77
2022-09-21T06:07:59.695Z,1.77
2022-09-21T06:10:31.133Z,2.08
2022-09-21T06:12:58.863Z,1.52
2022-09-21T06:15:26.626Z,1.70
2022-09-21T06:17:54.081Z,1.85
2022-09-21T06:20:21.339Z,1.58
2022-09-21T06:22:50.023Z,2.05
2022-09-21T06:25:19.347Z,1.35
2022-09-21T06:30:14.236Z,2.78
2022-09-21T06:32:41.471Z,3.97
2022-09-21T06:35:09.513Z,4.68
2022-09-21T06:37:38.484Z,4.78
2022-09-21T06:40:08.883Z,5.30
2022-09-21T06:42:36.180Z,4.20
2022-09-21T06:45:03.683Z,4.57
2022-09-21T06:47:31.103Z,4.70
2022-09-21T06:49:58.738Z,2.92
2022-09-21T06:52:26.139Z,2.78
2022-09-21T06:54:53.488Z,3.03
2022-09-21T06:57:23.886Z,2.30
2022-09-21T06:59:51.248Z,2.40
2022-09-21T07:02:19.808Z,2.40
2022-09-21T07:04:47.180Z,2.10
2022-09-21T07:07:14.573Z,1.98
2022-09-21T07:12:35.404Z,2.00
2022-09-21T07:15:03.196Z,2.63
2022-09-21T07:17:33.045Z,2.35
2022-09-21T07:20:02.006Z,2.00
2022-09-21T07:22:31.886Z,1.60
2022-09-21T07:24:59.655Z,1.60
2022-09-21T07:27:29.708Z,1.75
2022-09-21T07:29:58.360Z,1.63
2022-09-21T07:32:26.265Z,1.70
2022-09-21T07:34:57.170Z,1.95
2022-09-21T07:37:25.169Z,1.60
2022-09-21T07:39:53.213Z,1.48
2022-09-21T07:42:22.776Z,1.40
2022-09-21T07:47:19.698Z,1.55
2022-09-21T07:49:47.286Z,2.10
2022-09-21T07:52:16.158Z,1.40
2022-09-21T07:54:43.543Z,1.30
2022-09-21T07:57:30.203Z,1.20
2022-09-21T07:59:58.348Z,1.25
2022-09-21T08:02:27.119Z,1.90
2022-09-21T08:04:55.003Z,1.27
2022-09-21T08:07:22.418Z,1.23
2022-09-21T08:09:50.898Z,1.35
2022-09-21T08:12:20.598Z,1.30
2022-09-21T08:14:48.263Z,1.80
2022-09-21T08:17:16.083Z,1.10
2022-09-21T08:19:44.681Z,1.40
2022-09-21T08:22:12.355Z,1.23
2022-09-21T08:24:44.577Z,1.30
2022-09-21T08:27:11.994Z,1.10
2022-09-21T08:29:39.466Z,1.52
2022-09-21T08:32:06.616Z,1.00
2022-09-21T08:34:34.039Z,1.20
2022-09-21T08:37:03.152Z,1.02
2022-09-21T08:39:30.246Z,1.30
2022-09-21T08:42:14.648Z,1.35
2022-09-21T08:44:47.662Z,1.25
2022-09-21T08:47:19.724Z,1.30
2022-09-21T08:49:54.217Z,1.40
2022-09-21T08:52:25.135Z,1.48
2022-09-21T08:54:56.040Z,1.40
2022-09-21T08:57:28.944Z,1.40
2022-09-21T08:59:56.622Z,1.30
2022-09-21T09:02:41.720Z,1.00
2022-09-21T09:05:25.997Z,1.40
2022-09-21T09:08:20.580Z,0.80
2022-09-21T09:10:59.435Z,0.90
2022-09-21T09:13:47.631Z,0.77
2022-09-21T09:16:24.311Z,1.13
2022-09-21T09:18:55.080Z,1.13
2022-09-21T09:21:31.909Z,1.27
2022-09-21T09:24:04.661Z,1.08
2022-09-21T09:26:36.767Z,1.40
2022-09-21T09:29:13.135Z,1.33
2022-09-21T09:31:40.886Z,1.15
2022-09-21T09:34:13.271Z,1.17
2022-09-21T09:37:00.531Z,1.10
2022-09-21T09:39:31.155Z,1.23
2022-09-21T09:42:14.226Z,1.40
2022-09-21T09:45:06.487Z,0.98
2022-09-21T09:47:49.142Z,1.20
2022-09-21T09:50:21.890Z,1.00
2022-09-21T09:52:53.222Z,1.05
2022-09-21T09:55:26.338Z,0.75
2022-09-21T09:57:55.940Z,0.80
2022-09-21T10:00:23.255Z,1.00
2022-09-21T10:02:52.396Z,1.27
2022-09-21T10:05:44.495Z,1.10
2022-09-21T10:08:48.808Z,0.90
2022-09-21T10:11:17.864Z,0.80
2022-09-21T10:13:47.468Z,1.50
2022-09-21T10:18:48.065Z,1.20
2022-09-21T10:21:20.282Z,1.55
2022-09-21T10:23:50.330Z,1.38
2022-09-21T10:26:20.208Z,1.45
2022-09-21T10:28:56.938Z,1.10
2022-09-21T10:31:26.221Z,1.08
2022-09-21T10:34:05.309Z,1.00
2022-09-21T10:36:35.129Z,1.33
2022-09-21T10:41:59.489Z,1.13
2022-09-21T10:44:33.983Z,1.20
2022-09-21T10:47:16.605Z,0.95
2022-09-21T10:49:50.356Z,0.95
2022-09-21T10:52:20.384Z,1.17
2022-09-21T10:54:52.298Z,0.95
2022-09-21T10:57:23.987Z,1.15
2022-09-21T10:59:52.310Z,1.27
2022-09-21T11:02:43.151Z,1.60
2022-09-21T11:05:16.777Z,1.85
2022-09-21T11:07:49.882Z,1.50
2022-09-21T11:10:28.072Z,1.00
2022-09-21T11:13:10.179Z,0.82
2022-09-21T11:15:46.390Z,1.35
2022-09-21T11:18:22.396Z,0.93
2022-09-21T11:20:55.117Z,1.20
2022-09-21T11:23:43.795Z,1.38
2022-09-21T11:26:18.316Z,1.30
2022-09-21T11:28:55.540Z,1.10
2022-09-21T11:31:37.314Z,1.10
2022-09-21T11:34:26.106Z,1.10
2022-09-21T11:37:01.751Z,0.93
2022-09-21T11:39:40.398Z,1.20
2022-09-21T11:42:21.093Z,0.77
2022-09-21T11:44:55.308Z,1.20
2022-09-21T11:47:53.699Z,1.10
2022-09-21T11:50:36.686Z,1.17
2022-09-21T11:53:29.301Z,1.23
2022-09-21T11:56:16.998Z,0.95
2022-09-21T11:58:53.047Z,0.90
2022-09-21T12:01:40.072Z,1.00
2022-09-21T12:04:27.725Z,0.88
2022-09-21T12:07:07.306Z,0.90
2022-09-21T12:09:58.191Z,0.90
2022-09-21T12:12:32.903Z,0.90
2022-09-21T12:15:06.332Z,1.33
2022-09-21T12:17:45.954Z,1.10
2022-09-21T12:20:20.971Z,0.68
2022-09-21T12:22:54.497Z,0.82
2022-09-21T12:25:26.159Z,1.23
2022-09-21T12:27:58.865Z,1.05
2022-09-21T12:30:28.379Z,0.90
2022-09-21T12:35:30.728Z,0.60
2022-09-21T12:38:04.099Z,0.80
2022-09-21T12:40:38.385Z,0.90
2022-09-21T12:43:13.682Z,0.80
2022-09-21T12:45:46.408Z,1.08
2022-09-21T12:48:29.436Z,0.60
2022-09-21T12:51:05.058Z,1.10
2022-09-21T12:53:40.652Z,1.17
2022-09-21T12:56:13.890Z,1.00
2022-09-21T12:58:55.441Z,1.02
2022-09-21T13:01:31.074Z,1.17
2022-09-21T13:04:31.800Z,1.00
2022-09-21T13:07:41.072Z,0.95
2022-09-21T13:10:17.077Z,0.95
2022-09-21T13:12:47.530Z,0.90
2022-09-21T13:15:19.389Z,0.90
2022-09-21T13:17:46.690Z,2.13
2022-09-21T13:20:20.983Z,1.00
2022-09-21T13:22:49.291Z,0.95
2022-09-21T13:25:24.218Z,1.10
2022-09-21T13:28:04.460Z,1.00
2022-09-21T13:30:38.668Z,0.98
2022-09-21T13:33:30.199Z,1.48
2022-09-21T13:36:08.042Z,0.77
2022-09-21T13:39:05.172Z,0.60
2022-09-21T13:41:59.045Z,0.88
2022-09-21T13:44:41.231Z,0.90
2022-09-21T13:47:11.562Z,0.65
2022-09-21T13:49:53.938Z,1.08
2022-09-21T13:52:37.529Z,1.40
2022-09-21T13:55:15.366Z,0.88
2022-09-21T13:57:47.828Z,0.80
2022-09-21T14:00:43.687Z,1.00
2022-09-21T14:03:22.348Z,1.20
2022-09-21T14:05:53.347Z,0.85
2022-09-21T14:08:31.497Z,0.85
2022-09-21T14:11:02.715Z,0.55
2022-09-21T14:13:34.562Z,1.00
2022-09-21T14:16:44.720Z,0.73
2022-09-21T14:20:03.934Z,0.82
2022-09-21T14:22:42.859Z,0.88
2022-09-21T14:25:47.223Z,0.80
2022-09-21T14:28:18.466Z,0.98
2022-09-21T14:30:54.354Z,0.70
2022-09-21T14:33:29.372Z,1.65
2022-09-21T14:35:58.725Z,1.00
2022-09-21T14:38:29.560Z,1.08
2022-09-21T14:41:01.632Z,0.70
2022-09-21T14:43:36.115Z,1.70
2022-09-21T14:46:19.507Z,1.05
2022-09-21T14:48:58.723Z,0.93
2022-09-21T14:51:38.428Z,0.88
2022-09-21T14:54:33.728Z,1.05
2022-09-21T14:57:15.389Z,0.80
2022-09-21T14:59:58.988Z,1.13
2022-09-21T15:02:29.779Z,1.02
2022-09-21T15:05:12.456Z,0.65
2022-09-21T15:08:05.957Z,0.77
2022-09-21T15:10:56.054Z,0.80
2022-09-21T15:13:47.031Z,0.90
2022-09-21T15:16:35.409Z,1.00
2022-09-21T15:19:16.393Z,0.95
2022-09-21T15:21:45.593Z,0.95
2022-09-21T15:24:20.521Z,0.90
2022-09-21T15:26:51.636Z,0.63
2022-09-21T15:29:24.751Z,0.93
2022-09-21T15:31:53.967Z,1.83
2022-09-21T15:34:23.545Z,1.30
2022-09-21T15:36:52.974Z,2.88
2022-09-21T15:39:26.703Z,1.23
2022-09-21T15:42:18.108Z,0.98
2022-09-21T15:44:50.755Z,0.88
2022-09-21T15:47:22.998Z,1.00
2022-09-21T15:49:51.807Z,1.55
2022-09-21T15:52:26.551Z,0.70
2022-09-21T15:54:58.257Z,0.70
2022-09-21T15:57:39.075Z,2.15
2022-09-21T16:00:19.474Z,3.22
2022-09-21T16:02:59.144Z,1.02
2022-09-21T16:05:28.129Z,1.25
2022-09-21T16:08:06.505Z,1.00
2022-09-21T16:10:40.194Z,1.23
2022-09-21T16:13:34.240Z,1.05
2022-09-21T16:16:03.626Z,0.93
2022-09-21T16:18:40.562Z,1.10
2022-09-21T16:21:13.789Z,2.20
2022-09-21T16:23:41.047Z,2.55
2022-09-21T16:26:20.055Z,4.20
2022-09-21T16:28:47.837Z,1.75
2022-09-21T16:31:39.185Z,1.27
2022-09-21T16:34:21.977Z,1.42
2022-09-21T16:36:51.516Z,0.90
2022-09-21T16:39:20.406Z,1.48
2022-09-21T16:41:51.931Z,1.38
2022-09-21T16:44:21.132Z,1.33
2022-09-21T16:46:54.908Z,1.88
2022-09-21T16:49:30.150Z,2.30
2022-09-21T16:51:58.573Z,1.55
2022-09-21T16:54:27.354Z,1.35
2022-09-21T16:56:57.561Z,3.70
2022-09-21T16:59:25.537Z,2.75
2022-09-21T17:01:56.538Z,1.50
2022-09-21T17:04:26.758Z,4.90
2022-09-21T17:06:55.198Z,2.03
2022-09-21T17:09:29.166Z,3.25
2022-09-21T17:12:01.394Z,2.20
2022-09-21T17:14:35.338Z,4.22
2022-09-21T17:17:08.408Z,1.67
2022-09-21T17:19:37.348Z,1.60
2022-09-21T17:22:05.489Z,1.40
2022-09-21T17:24:49.891Z,1.38
2022-09-21T17:27:19.791Z,2.05
2022-09-21T17:29:48.512Z,2.00
2022-09-21T17:32:16.799Z,1.75
2022-09-21T17:34:46.210Z,3.28
2022-09-21T17:37:13.664Z,7.90
2022-09-21T17:39:43.311Z,5.72
2022-09-21T17:45:06.997Z,2.92
2022-09-21T17:47:35.138Z,2.20
2022-09-21T17:50:15.961Z,2.20
2022-09-21T17:53:03.096Z,2.63
2022-09-21T17:55:31.337Z,1.80
2022-09-21T17:58:09.991Z,7.75
2022-09-21T18:00:45.799Z,7.68
2022-09-21T18:03:22.227Z,2.78
2022-09-21T18:05:57.228Z,2.55
2022-09-21T18:08:26.627Z,1.90
2022-09-21T18:11:18.622Z,3.00
2022-09-21T18:13:54.293Z,2.85
2022-09-21T18:16:35.587Z,2.55
2022-09-21T18:19:22.862Z,3.63
2022-09-21T18:21:59.183Z,2.47
2022-09-21T18:24:31.159Z,2.45
2022-09-21T18:27:01.910Z,2.63
2022-09-21T18:29:40.681Z,2.35
2022-09-21T18:32:28.716Z,2.28
2022-09-21T18:35:10.639Z,2.10
2022-09-21T18:37:47.366Z,1.88
2022-09-21T18:40:22.735Z,2.70
2022-09-21T18:42:56.506Z,3.63
2022-09-21T18:45:28.422Z,2.13
2022-09-21T18:48:17.406Z,2.00
2022-09-21T18:50:51.365Z,1.83
2022-09-21T18:53:27.303Z,1.85
2022-09-21T18:55:55.723Z,1.83
2022-09-21T18:58:23.847Z,1.50
2022-09-21T19:00:52.199Z,4.60
2022-09-21T19:03:20.565Z,1.50
2022-09-21T19:06:01.555Z,2.33
2022-09-21T19:08:39.192Z,1.63
2022-09-21T19:11:16.652Z,1.55
2022-09-21T19:13:50.586Z,2.63
2022-09-21T19:16:27.912Z,1.70
2022-09-21T19:19:05.942Z,2.47
2022-09-21T19:21:46.856Z,1.75
2022-09-21T19:24:25.436Z,1.75
2022-09-21T19:27:03.617Z,2.67
2022-09-21T19:29:54.652Z,3.45
2022-09-21T19:32:31.798Z,2.95
2022-09-21T19:35:00.120Z,3.63
2022-09-21T19:37:27.439Z,3.22
2022-09-21T19:39:56.307Z,3.42
2022-09-21T19:42:33.464Z,4.30
2022-09-21T19:45:15.299Z,6.93
2022-09-21T19:47:51.021Z,8.25
2022-09-21T19:50:20.442Z,10.40
2022-09-21T19:52:48.563Z,12.57
2022-09-21T19:55:38.150Z,13.63
2022-09-21T20:00:54.474Z,16.23
2022-09-21T20:03:31.255Z,17.63
2022-09-21T20:06:05.252Z,20.30
2022-09-21T20:08:40.085Z,17.05
2022-09-21T20:11:13.173Z,19.38
2022-09-21T20:14:07.235Z,17.73
2022-09-21T20:16:44.066Z,14.55
2022-09-21T20:19:24.620Z,13.57
2022-09-21T20:21:57.889Z,11.48
2022-09-21T20:24:30.934Z,10.10
2022-09-21T20:27:02.785Z,7.78
2022-09-21T20:29:30.286Z,6.55
2022-09-21T20:32:01.038Z,5.82
2022-09-21T20:34:29.536Z,4.50
2022-09-21T20:36:56.667Z,3.95
2022-09-21T20:39:24.375Z,3.53
2022-09-21T20:41:52.568Z,3.30
2022-09-21T20:44:22.045Z,3.00
2022-09-21T20:46:49.221Z,2.55
2022-09-21T20:49:16.391Z,2.70
2022-09-21T20:51:43.652Z,2.50
2022-09-21T20:54:12.305Z,2.60
2022-09-21T20:56:39.709Z,2.73
2022-09-21T20:59:07.267Z,2.30
2022-09-21T21:01:35.995Z,2.42
2022-09-21T21:04:03.702Z,1.73
2022-09-21T21:06:35.171Z,2.00
2022-09-21T21:09:02.330Z,2.90
2022-09-21T21:11:29.455Z,2.20
2022-09-21T21:13:56.930Z,6.75
2022-09-21T21:16:24.193Z,2.47
2022-09-21T21:18:52.701Z,4.40
2022-09-21T21:21:19.983Z,2.90
2022-09-21T21:24:08.433Z,2.60
2022-09-21T21:26:57.756Z,2.33
2022-09-21T21:29:23.957Z,4.82
2022-09-21T21:31:52.397Z,2.50
2022-09-21T21:34:21.494Z,1.70
2022-09-21T21:39:16.743Z,1.88
2022-09-21T21:41:43.982Z,2.03
2022-09-21T21:44:14.138Z,2.97
2022-09-21T21:46:42.546Z,2.30
2022-09-21T21:49:10.236Z,2.28
2022-09-21T21:51:39.023Z,8.73
2022-09-21T21:54:06.467Z,3.67
2022-09-21T21:56:33.844Z,4.28
2022-09-21T21:59:01.215Z,2.97
2022-09-21T22:01:30.254Z,3.03
2022-09-21T22:03:59.335Z,2.60
2022-09-21T22:06:27.755Z,2.30
2022-09-21T22:08:57.496Z,1.90
2022-09-21T22:11:26.366Z,2.22
2022-09-21T22:13:54.847Z,2.20
2022-09-21T22:16:24.955Z,2.10
2022-09-21T22:18:53.749Z,1.83
2022-09-21T22:21:23.745Z,1.73
2022-09-21T22:23:53.076Z,2.42
2022-09-21T22:26:22.627Z,2.10
2022-09-21T22:28:52.455Z,3.25
2022-09-21T22:31:21.797Z,2.25
2022-09-21T22:33:49.833Z,2.05
2022-09-21T22:36:19.159Z,2.30
2022-09-21T22:38:49.576Z,2.20
2022-09-21T22:41:19.507Z,1.52
2022-09-21T22:46:19.058Z,1.50
2022-09-21T22:48:48.304Z,2.10
2022-09-21T22:51:17.386Z,1.70
2022-09-21T22:53:45.494Z,1.80
2022-09-21T22:56:15.073Z,1.55
2022-09-21T22:58:43.973Z,1.48
2022-09-21T23:01:14.758Z,1.80
2022-09-21T23:03:43.177Z,1.77
2022-09-21T23:06:12.415Z,1.92
2022-09-21T23:08:40.963Z,1.83
2022-09-21T23:11:10.526Z,1.83
2022-09-21T23:13:38.109Z,2.00
2022-09-21T23:16:07.094Z,1.63
2022-09-21T23:18:36.677Z,1.92
2022-09-21T23:21:07.244Z,1.83
2022-09-21T23:23:35.224Z,1.60
2022-09-21T23:26:08.584Z,1.83
2022-09-21T23:28:37.400Z,2.40
2022-09-21T23:31:07.880Z,2.13
2022-09-21T23:33:38.198Z,1.52
2022-09-21T23:36:07.273Z,2.03
2022-09-21T23:38:36.291Z,1.85
2022-09-21T23:41:06.253Z,1.88
2022-09-21T23:43:34.766Z,1.55
2022-09-21T23:46:04.754Z,1.55
2022-09-21T23:48:32.450Z,1.48
2022-09-21T23:51:01.270Z,1.55
2022-09-21T23:53:29.150Z,1.98
2022-09-21T23:55:57.718Z,1.40
2022-09-21T23:58:26.403Z,1.77
